Time;durP1;ratioP1;P1;durP2;ratioP2;P2;SDS_P1;SDS_P2;PMS_P1;PMS_P2;Temp;Humidity;BMP_temperature;BMP_pressure;BME280_temperature;BME280_humidity;BME280_pressure;Samples;Min_cycle;Max_cycle;Signal;HPM_P1;HPM_P2
2022/05/25 00:02:23;;;;;;;6.75;4.60;;;15.40;84.30;;;13.94;100.00;95665.00;4960764;28;20303;-64
2022/05/25 00:04:49;;;;;;;6.25;4.20;;;15.40;84.40;;;13.94;99.59;95666.84;4948435;28;20069;-63
2022/05/25 00:07:16;;;;;;;5.75;4.28;;;15.40;84.30;;;13.93;100.00;95668.69;4962052;28;20060;-65
2022/05/25 00:09:42;;;;;;;5.55;4.00;;;15.40;84.20;;;13.90;100.00;95673.59;4959115;28;20052;-63
2022/05/25 00:12:08;;;;;;;5.57;3.85;;;15.40;84.30;;;13.89;100.00;95675.44;4949552;28;20041;-63
2022/05/25 00:14:35;;;;;;;5.22;4.10;;;15.40;84.30;;;13.86;100.00;95667.16;4939179;28;20037;-63
2022/05/25 00:17:03;;;;;;;5.53;4.20;;;15.40;84.20;;;13.87;100.00;95674.84;4973722;28;20075;-64
2022/05/25 00:22:13;;;;;;;5.10;3.67;;;15.40;84.50;;;13.87;100.00;95659.00;4961313;28;20844;-64
2022/05/25 00:24:39;;;;;;;5.22;3.60;;;15.30;84.40;;;13.86;100.00;95652.09;4954714;28;20042;-64
2022/05/25 00:27:05;;;;;;;4.90;4.10;;;15.30;84.20;;;13.88;100.00;95650.03;4926883;28;20294;-64
2022/05/25 00:29:31;;;;;;;8.20;5.00;;;15.40;84.20;;;13.87;99.83;95653.69;4887153;28;20359;-65
2022/05/25 00:31:57;;;;;;;6.57;4.78;;;15.30;84.00;;;13.86;100.00;95643.34;4886712;28;20338;-65
2022/05/25 00:34:23;;;;;;;7.10;4.80;;;15.30;84.10;;;13.83;100.00;95641.97;4901793;28;20274;-65
2022/05/25 00:36:49;;;;;;;6.13;4.80;;;15.20;84.20;;;13.82;100.00;95623.69;4882050;28;20503;-64
2022/05/25 00:39:16;;;;;;;8.45;5.30;;;15.20;84.40;;;13.81;100.00;95622.06;4871147;28;20454;-65
2022/05/25 00:41:42;;;;;;;5.93;4.72;;;15.20;84.50;;;13.78;99.99;95626.72;4907211;28;20355;-64
2022/05/25 00:44:08;;;;;;;6.85;4.85;;;15.20;84.50;;;13.78;100.00;95629.38;4902337;28;20367;-64
2022/05/25 00:46:35;;;;;;;5.40;4.90;;;15.20;84.60;;;13.78;100.00;95634.66;4886409;28;20291;-65
2022/05/25 00:49:33;;;;;;;6.68;4.65;;;15.20;84.20;;;13.79;100.00;95635.47;4901925;28;20262;-64
2022/05/25 00:52:07;;;;;;;6.85;4.85;;;15.20;84.30;;;13.76;100.00;95642.00;4886896;28;20257;-64
2022/05/25 00:54:42;;;;;;;6.22;5.18;;;15.20;84.50;;;13.75;100.00;95640.41;4914418;28;20412;-65
2022/05/25 00:57:11;;;;;;;9.82;5.60;;;15.20;84.50;;;13.75;100.00;95636.94;4918396;28;20768;-65
2022/05/25 00:59:56;;;;;;;8.82;6.32;;;15.20;84.60;;;13.75;100.00;95629.81;4899582;28;20337;-65
2022/05/25 01:02:22;;;;;;;6.75;6.15;;;15.30;84.70;;;13.74;100.00;95636.13;4902063;28;20675;-65
2022/05/25 01:04:48;;;;;;;7.60;6.25;;;15.30;84.70;;;13.75;100.00;95644.88;4902659;28;20560;-64
2022/05/25 01:07:45;;;;;;;8.82;6.57;;;15.20;84.60;;;13.75;100.00;95635.09;4887313;28;20384;-65
2022/05/25 01:11:05;;;;;;;9.40;6.55;;;15.30;84.70;;;13.75;100.00;95634.28;4914560;28;20303;-65
2022/05/25 01:13:54;;;;;;;10.88;7.38;;;15.20;84.80;;;13.71;100.00;95633.94;4908511;28;20320;-65
2022/05/25 01:16:28;;;;;;;10.07;7.88;;;15.20;85.00;;;13.72;100.00;95642.66;4891906;28;20517;-65
2022/05/25 01:19:32;;;;;;;10.57;7.70;;;15.20;85.00;;;13.73;100.00;95660.16;4913877;28;20336;-64
2022/05/25 01:22:39;;;;;;;8.85;7.90;;;15.20;84.90;;;13.74;100.00;95667.03;4922472;28;20041;-64
2022/05/25 01:25:34;;;;;;;10.15;8.10;;;15.20;85.00;;;13.73;100.00;95673.34;4907213;28;20778;-64
2022/05/25 01:28:48;;;;;;;12.13;7.82;;;15.20;85.00;;;13.74;100.00;95675.78;4905473;28;20341;-64
2022/05/25 01:31:29;;;;;;;8.60;7.70;;;15.20;84.90;;;13.74;100.00;95677.63;4896775;28;20595;-65
2022/05/25 01:34:01;;;;;;;8.68;7.72;;;15.30;84.90;;;13.72;100.00;95672.56;4899367;28;20361;-64
2022/05/25 01:36:48;;;;;;;8.80;7.60;;;15.30;84.80;;;13.76;100.00;95675.56;4894843;28;20409;-64
2022/05/25 01:39:18;;;;;;;8.30;7.40;;;15.30;84.80;;;13.76;100.00;95688.78;4885178;28;20375;-64
2022/05/25 01:42:29;;;;;;;11.27;7.63;;;15.30;84.80;;;13.74;100.00;95685.53;4863811;28;20411;-64
2022/05/25 01:45:02;;;;;;;9.90;7.22;;;15.30;84.70;;;13.73;100.00;95686.56;4845340;28;20415;-64
2022/05/25 01:47:28;;;;;;;9.23;7.13;;;15.30;84.80;;;13.73;100.00;95691.88;4875290;28;20464;-65
2022/05/25 01:50:10;;;;;;;7.63;6.80;;;15.20;84.80;;;13.71;100.00;95686.78;4870192;28;20345;-64
2022/05/25 01:52:57;;;;;;;8.20;6.13;;;15.20;85.10;;;13.73;100.00;95694.50;4857977;28;20240;-65
2022/05/25 01:55:27;;;;;;;9.10;5.85;;;15.20;85.20;;;13.70;100.00;95700.22;4845699;28;20358;-65
2022/05/25 01:57:57;;;;;;;7.82;5.40;;;15.20;85.20;;;13.69;100.00;95698.63;4866998;28;20438;-65
2022/05/25 02:00:40;;;;;;;6.93;5.50;;;15.20;85.20;;;13.67;100.00;95688.25;4867749;28;20347;-65
2022/05/25 02:06:03;;;;;;;7.22;5.47;;;15.10;85.20;;;13.66;100.00;95688.47;4895786;28;20348;-65
2022/05/25 02:09:09;;;;;;;6.80;5.75;;;15.10;85.20;;;13.65;100.00;95684.22;4913936;28;20177;-64
2022/05/25 02:11:43;;;;;;;8.43;5.72;;;15.10;85.10;;;13.63;100.00;95688.91;4908331;28;20658;-64
2022/05/25 02:14:53;;;;;;;6.65;5.70;;;15.10;85.20;;;13.64;100.00;95685.25;4875269;28;20501;-64
2022/05/25 02:17:48;;;;;;;8.20;5.70;;;15.10;85.20;;;13.61;100.00;95683.06;4915700;28;20356;-65
2022/05/25 02:20:26;;;;;;;7.22;5.95;;;15.10;85.00;;;13.60;100.00;95689.38;4896741;28;20712;-65
2022/05/25 02:22:56;;;;;;;7.47;5.93;;;15.10;85.10;;;13.59;100.00;95687.75;4913355;28;20365;-65
2022/05/25 02:26:02;;;;;;;6.73;6.00;;;15.10;85.20;;;13.59;100.00;95682.47;4881958;28;20266;-65
2022/05/25 02:28:34;;;;;;;15.70;13.48;;;15.10;85.20;;;13.57;100.00;95674.72;4903101;28;20339;-64
2022/05/25 02:31:00;;;;;;;13.82;10.02;;;15.10;85.50;;;13.59;100.00;95682.47;4882479;28;20744;-65
2022/05/25 02:33:54;;;;;;;9.57;8.68;;;15.10;85.50;;;13.59;100.00;95685.91;4881114;28;20464;-65
2022/05/25 02:36:20;;;;;;;13.45;10.07;;;15.10;85.50;;;13.58;100.00;95680.81;4871072;28;20350;-64
2022/05/25 02:38:46;;;;;;;16.42;14.65;;;15.10;85.60;;;13.58;100.00;95707.25;4873617;28;20295;-65
2022/05/25 02:41:30;;;;;;;8.05;7.00;;;15.10;85.70;;;13.57;100.00;95706.44;4882635;28;20319;-65
2022/05/25 02:43:58;;;;;;;6.38;5.78;;;15.10;85.50;;;13.56;100.00;95709.28;4889493;28;20626;-65
2022/05/25 02:46:24;;;;;;;6.57;5.80;;;15.10;85.80;;;13.57;100.00;95713.56;4916806;28;20375;-66
2022/05/25 02:48:50;;;;;;;6.85;5.20;;;15.10;85.70;;;13.57;100.00;95710.91;4871665;28;20358;-66
2022/05/25 02:51:17;;;;;;;6.97;6.18;;;15.10;85.60;;;13.57;100.00;95713.56;4906794;28;20549;-66
2022/05/25 02:53:44;;;;;;;6.65;5.97;;;15.10;85.70;;;13.56;100.00;95709.28;4873411;28;20362;-66
2022/05/25 02:56:10;;;;;;;9.23;6.30;;;15.10;85.60;;;13.56;100.00;95711.94;4898859;28;20570;-64
2022/05/25 02:58:36;;;;;;;15.30;12.23;;;15.10;85.60;;;13.56;100.00;95707.47;4875701;28;20510;-65
2022/05/25 03:01:03;;;;;;;19.60;13.93;;;15.10;85.60;;;13.57;100.00;95710.91;4904970;28;20702;-64
2022/05/25 03:03:29;;;;;;;12.98;11.10;;;15.10;85.80;;;13.57;100.00;95714.38;4892798;28;20344;-65
2022/05/25 03:05:55;;;;;;;10.65;7.22;;;15.10;85.70;;;13.58;100.00;95718.66;4872950;28;20413;-64
2022/05/25 03:08:22;;;;;;;7.95;6.70;;;15.10;85.70;;;13.57;100.00;95718.84;4884267;28;20356;-65
2022/05/25 03:10:47;;;;;;;7.55;6.30;;;15.10;85.70;;;13.56;100.00;95725.97;4900112;28;20336;-64
2022/05/25 03:13:14;;;;;;;7.07;5.72;;;15.10;85.50;;;13.57;100.00;95726.75;4925312;28;20374;-64
2022/05/25 03:15:40;;;;;;;9.20;6.55;;;15.10;85.50;;;13.57;100.00;95724.94;4884871;28;20274;-65
2022/05/25 03:18:06;;;;;;;7.22;6.50;;;15.10;85.60;;;13.56;100.00;95731.25;4873074;28;20541;-65
2022/05/25 03:20:33;;;;;;;8.90;8.00;;;15.10;85.60;;;13.57;100.00;95734.69;4918293;28;20508;-64
2022/05/25 03:22:58;;;;;;;13.95;11.40;;;15.10;85.80;;;13.58;100.00;95738.94;4888041;28;20304;-65
2022/05/25 03:25:25;;;;;;;14.07;12.65;;;15.10;85.80;;;13.59;100.00;95735.31;4904905;28;20550;-65
2022/05/25 03:27:51;;;;;;;14.98;13.35;;;15.10;85.90;;;13.59;100.00;95737.97;4901793;28;20479;-65
2022/05/25 03:30:17;;;;;;;15.60;10.65;;;15.10;85.70;;;13.59;100.00;95743.25;4887177;28;20199;-65
2022/05/25 03:32:43;;;;;;;11.90;10.65;;;15.10;85.80;;;13.59;100.00;95745.88;4903552;28;20349;-65
2022/05/25 03:35:10;;;;;;;14.65;12.45;;;15.10;85.80;;;13.61;100.00;95749.13;4903277;28;20822;-65
2022/05/25 03:37:37;;;;;;;10.02;9.00;;;15.20;85.60;;;13.62;100.00;95748.09;4888653;28;20299;-65
2022/05/25 03:40:11;;;;;;;10.30;8.00;;;15.10;85.60;;;13.62;100.00;95753.38;4903469;28;20719;-66
2022/05/25 03:42:39;;;;;;;10.35;6.78;;;15.20;85.60;;;13.61;100.00;95754.41;4900064;28;20473;-65
2022/05/25 03:45:06;;;;;;;8.43;7.30;;;15.10;85.60;;;13.61;100.00;95754.41;4900304;28;20518;-64
2022/05/25 03:47:32;;;;;;;7.53;6.78;;;15.10;85.60;;;13.61;100.00;95759.69;4870539;28;20296;-65
2022/05/25 03:49:58;;;;;;;8.48;6.75;;;15.10;85.70;;;13.61;100.00;95771.06;4892759;28;20462;-65
2022/05/25 03:52:25;;;;;;;8.23;7.43;;;15.10;85.60;;;13.60;100.00;95769.44;4883663;28;20517;-65
2022/05/25 03:54:51;;;;;;;8.32;7.53;;;15.10;85.70;;;13.61;100.00;95775.53;4902307;28;20528;-65
2022/05/25 03:57:17;;;;;;;9.50;7.60;;;15.10;85.60;;;13.62;100.00;95771.88;4896244;28;20367;-66
2022/05/25 03:59:45;;;;;;;8.30;7.50;;;15.10;85.40;;;13.62;100.00;95769.22;4880946;28;20490;-65
2022/05/25 04:02:12;;;;;;;8.30;7.38;;;15.10;85.30;;;13.62;100.00;95777.97;4906452;28;20254;-65
2022/05/25 04:04:38;;;;;;;11.50;7.20;;;15.20;85.40;;;13.62;100.00;95780.63;4897872;28;20339;-65
2022/05/25 04:07:04;;;;;;;8.50;7.20;;;15.20;85.40;;;13.61;100.00;95781.63;4905601;28;20872;-65
2022/05/25 04:09:30;;;;;;;9.82;6.75;;;15.30;85.40;;;13.62;100.00;95785.09;4908268;28;20359;-65
2022/05/25 04:11:56;;;;;;;8.02;6.85;;;15.20;85.40;;;13.64;100.00;95788.31;4884421;28;20552;-65
2022/05/25 04:14:23;;;;;;;7.68;6.85;;;15.20;85.40;;;13.63;100.00;95794.63;4910653;28;21031;-64
2022/05/25 04:16:49;;;;;;;8.20;6.30;;;15.20;85.40;;;13.64;100.00;95796.25;4898116;28;20365;-67
2022/05/25 04:19:16;;;;;;;7.43;6.43;;;15.10;85.20;;;13.63;100.00;95792.00;4896120;28;20323;-66
2022/05/25 04:21:42;;;;;;;7.18;6.47;;;15.10;85.30;;;13.64;100.00;95799.69;4880007;28;20386;-64
2022/05/25 04:24:08;;;;;;;10.45;6.68;;;15.20;85.40;;;13.65;100.00;95795.22;4890455;28;20484;-66
2022/05/25 04:26:35;;;;;;;7.85;6.30;;;15.10;85.30;;;13.66;100.00;95804.78;4901140;28;20362;-65
2022/05/25 04:29:01;;;;;;;9.10;6.38;;;15.20;85.10;;;13.66;100.00;95802.94;4884198;28;20486;-66
2022/05/25 04:31:27;;;;;;;7.10;6.40;;;15.30;85.00;;;13.68;100.00;95813.28;4866862;28;20336;-65
2022/05/25 04:33:54;;;;;;;12.98;7.95;;;15.20;85.00;;;13.68;100.00;95818.56;4867982;28;20183;-65
2022/05/25 04:36:20;;;;;;;12.15;10.68;;;15.20;84.90;;;13.70;100.00;95816.53;4912510;28;20367;-66
2022/05/25 04:38:46;;;;;;;12.63;11.00;;;15.30;84.90;;;13.70;100.00;95808.59;4896876;28;20494;-66
2022/05/25 04:41:12;;;;;;;11.35;8.07;;;15.20;84.90;;;13.70;100.00;95812.06;4901970;28;20494;-65
2022/05/25 04:43:38;;;;;;;6.68;5.95;;;15.20;84.90;;;13.70;100.00;95817.34;4890755;28;20400;-66
2022/05/25 04:46:09;;;;;;;7.80;6.65;;;15.20;84.50;;;13.71;100.00;95818.94;4886654;28;20319;-65
2022/05/25 04:48:36;;;;;;;7.32;6.53;;;15.20;84.30;;;13.70;100.00;95821.81;4898087;28;20211;-66
2022/05/25 04:51:02;;;;;;;7.13;6.25;;;15.20;84.30;;;13.70;100.00;95822.63;4894631;28;20505;-66
2022/05/25 04:53:28;;;;;;;7.65;6.75;;;15.20;84.20;;;13.71;100.00;95821.59;4902856;28;20342;-66
2022/05/25 04:58:44;;;;;;;8.48;7.28;;;15.20;84.30;;;13.70;100.00;95827.91;4898081;28;20424;-66
2022/05/25 05:01:12;;;;;;;8.20;7.40;;;15.30;84.60;;;13.70;100.00;95832.38;4883438;28;20307;-66
2022/05/25 05:03:38;;;;;;;8.45;7.65;;;15.20;84.50;;;13.69;100.00;95830.78;4896198;28;20443;-66
2022/05/25 05:06:07;;;;;;;11.75;7.68;;;15.30;84.20;;;13.71;100.00;95828.72;4895953;28;20554;-67
2022/05/25 05:08:33;;;;;;;8.60;7.72;;;15.30;84.10;;;13.71;100.00;95834.81;4900656;28;20347;-67
2022/05/25 05:11:10;;;;;;;9.63;8.60;;;15.30;84.50;;;13.72;100.00;95848.84;4885396;28;20327;-67
2022/05/25 05:13:37;;;;;;;11.10;8.05;;;15.20;84.30;;;13.70;100.00;95853.53;4882417;28;20501;-67
2022/05/25 05:16:07;;;;;;;9.80;8.82;;;15.20;84.20;;;13.70;100.00;95848.25;4904133;28;20446;-67
2022/05/25 05:18:33;;;;;;;9.13;8.23;;;15.20;84.30;;;13.68;100.00;95853.75;4919849;28;20611;-68
2022/05/25 05:20:59;;;;;;;9.20;8.27;;;15.20;84.40;;;13.66;100.00;95863.72;4903000;28;20374;-68
2022/05/25 05:23:26;;;;;;;9.30;8.43;;;15.20;84.40;;;13.66;100.00;95868.19;4890141;28;20296;-67
2022/05/25 05:25:52;;;;;;;9.30;8.40;;;15.20;84.50;;;13.66;100.00;95876.13;4894722;28;20798;-65
2022/05/25 05:28:21;;;;;;;9.80;8.85;;;15.30;84.50;;;13.66;100.00;95873.50;4901258;28;20591;-63
2022/05/25 05:30:55;;;;;;;9.88;8.98;;;15.30;84.60;;;13.69;100.00;95879.16;4886067;28;20310;-64
2022/05/25 05:33:22;;;;;;;9.57;8.55;;;15.30;84.50;;;13.68;100.00;95888.13;4896651;28;20560;-65
2022/05/25 05:36:13;;;;;;;10.38;9.38;;;15.30;84.10;;;13.67;100.00;95888.31;4889651;28;20746;-65
2022/05/25 05:38:45;;;;;;;10.38;9.43;;;15.10;84.60;;;13.62;100.00;95893.44;4960834;28;20049;-65
2022/05/25 05:41:12;;;;;;;9.57;8.57;;;15.10;84.50;;;13.61;100.00;95897.13;4935377;28;20549;-67
2022/05/25 05:43:38;;;;;;;11.13;9.48;;;15.10;84.90;;;13.60;100.00;95912.16;4932374;28;20309;-64
2022/05/25 05:46:04;;;;;;;9.90;8.75;;;15.20;84.80;;;13.63;100.00;95908.28;4931607;28;20348;-65
2022/05/25 05:48:30;;;;;;;9.50;8.23;;;15.10;84.70;;;13.64;100.00;95912.53;4897159;28;20323;-65
2022/05/25 05:50:56;;;;;;;10.55;8.23;;;15.20;84.40;;;13.66;100.00;95918.44;4888371;28;20845;-64
2022/05/25 05:53:24;;;;;;;9.10;7.75;;;15.30;84.40;;;13.67;100.00;95922.69;4893622;28;20369;-65
2022/05/25 05:55:50;;;;;;;16.30;8.50;;;15.30;84.30;;;13.69;100.00;95931.22;4915346;28;20575;-65
2022/05/25 05:58:16;;;;;;;9.55;7.18;;;15.30;84.30;;;13.70;100.00;95943.41;4889571;28;20287;-65
2022/05/25 06:00:42;;;;;;;7.32;6.65;;;15.30;83.90;;;13.71;100.00;95947.66;4902610;28;20410;-64
2022/05/25 06:03:09;;;;;;;7.28;6.40;;;15.30;84.00;;;13.73;100.00;95953.56;4891110;28;20418;-65
2022/05/25 06:05:35;;;;;;;6.90;5.65;;;15.30;83.70;;;13.71;100.00;95952.94;4872417;28;20323;-65
2022/05/25 06:08:16;;;;;;;5.60;5.00;;;15.30;83.50;;;13.73;100.00;95959.66;4892094;28;20683;-65
2022/05/25 06:10:42;;;;;;;5.85;5.18;;;15.30;83.00;;;13.74;100.00;95961.25;4883928;28;20370;-64
2022/05/25 06:13:08;;;;;;;7.38;5.03;;;15.40;83.20;;;13.75;100.00;95975.28;4889010;28;20413;-65
2022/05/25 06:21:05;;;;;;;5.43;3.97;;;15.40;82.70;;;13.81;100.00;95978.94;4888978;28;20490;-63
2022/05/25 06:23:31;;;;;;;4.20;3.60;;;15.50;82.70;;;13.82;99.21;95964.69;4880420;28;20485;-63
2022/05/25 06:25:57;;;;;;;6.35;3.65;;;15.50;81.90;;;13.81;98.77;95982.41;4897739;28;20509;-64
2022/05/25 06:28:23;;;;;;;5.55;3.50;;;15.60;81.80;;;13.83;99.03;95996.22;4887945;28;20587;-63
2022/05/25 06:30:49;;;;;;;6.55;3.63;;;15.50;81.70;;;13.83;99.62;95990.94;4880565;28;20909;-64
2022/05/25 06:33:16;;;;;;;4.47;3.03;;;15.50;81.80;;;13.88;100.00;95998.22;4896048;28;20149;-63
2022/05/25 06:35:43;;;;;;;4.03;3.63;;;15.60;82.10;;;13.91;100.00;95988.03;4891095;28;20493;-63
2022/05/25 06:38:09;;;;;;;6.45;4.00;;;15.60;82.10;;;13.96;100.00;95995.31;4911111;28;20577;-63
2022/05/25 06:40:35;;;;;;;4.03;3.38;;;15.70;82.10;;;14.01;99.49;95993.66;4883181;28;20228;-63
2022/05/25 06:43:02;;;;;;;6.22;3.97;;;15.70;81.90;;;14.06;99.25;95985.09;4904790;28;20445;-64
2022/05/25 06:45:28;;;;;;;4.65;4.18;;;15.80;81.40;;;14.10;100.00;96002.97;4902034;28;20180;-63
2022/05/25 06:47:54;;;;;;;6.90;4.47;;;15.80;82.00;;;14.14;99.12;96007.81;4896545;28;20629;-63
2022/05/25 06:50:20;;;;;;;5.93;4.22;;;15.80;82.00;;;14.17;99.17;96015.34;4904671;28;20394;-64
2022/05/25 06:52:46;;;;;;;6.88;4.53;;;15.80;81.80;;;14.20;99.63;96012.25;4890868;28;20337;-63
2022/05/25 06:55:12;;;;;;;5.10;4.60;;;15.90;81.90;;;14.25;100.00;96015.06;4891669;28;20436;-63
2022/05/25 06:57:40;;;;;;;6.10;4.70;;;16.00;82.30;;;14.27;99.28;96023.63;4908688;28;20466;-63
2022/05/25 07:00:07;;;;;;;4.53;4.13;;;16.00;81.70;;;14.32;99.70;96015.84;4889704;28;20423;-63
2022/05/25 07:02:33;;;;;;;5.53;4.10;;;16.10;81.50;;;14.36;99.39;96017.84;4904128;28;20560;-63
2022/05/25 07:05:00;;;;;;;5.55;5.05;;;16.10;81.30;;;14.41;98.26;96025.16;4909630;28;20370;-63
2022/05/25 07:07:27;;;;;;;6.05;4.97;;;16.20;81.20;;;14.44;97.97;96024.75;4940439;28;20038;-63
2022/05/25 07:09:54;;;;;;;5.50;4.97;;;16.20;80.80;;;14.49;98.43;96032.88;4873235;28;20492;-63
2022/05/25 07:12:20;;;;;;;5.53;4.65;;;16.30;81.10;;;14.53;97.61;96039.34;4903120;28;20366;-63
2022/05/25 07:14:46;;;;;;;6.32;4.20;;;16.30;80.30;;;14.54;98.10;96046.25;4868892;28;20430;-64
2022/05/25 07:17:12;;;;;;;4.30;3.90;;;16.30;80.30;;;14.58;98.66;96044.00;4876597;28;20733;-63
2022/05/25 07:19:38;;;;;;;4.18;3.33;;;16.40;80.50;;;14.64;97.96;96049.22;4885704;28;20500;-64
2022/05/25 07:22:13;;;;;;;3.42;2.78;;;16.50;79.80;;;14.74;97.71;96050.59;4886347;28;20495;-63
2022/05/25 07:24:39;;;;;;;3.38;2.58;;;16.70;79.50;;;14.80;96.68;96047.09;4874163;28;20764;-63
2022/05/25 07:27:06;;;;;;;3.15;2.15;;;16.70;78.30;;;14.86;94.35;96054.97;4921976;28;20048;-63
2022/05/25 07:29:33;;;;;;;3.35;1.75;;;16.80;77.20;;;14.92;93.11;96059.38;4928762;28;20111;-63
2022/05/25 07:32:04;;;;;;;4.72;1.67;;;16.90;76.30;;;15.03;92.81;96049.94;4923716;28;20056;-64
2022/05/25 07:34:46;;;;;;;4.38;1.73;;;17.10;76.10;;;15.12;92.18;96051.25;4906435;28;22424;-63
2022/05/25 07:37:18;;;;;;;4.15;1.83;;;17.20;75.30;;;15.23;92.76;96057.69;4886793;28;20560;-63
2022/05/25 07:39:56;;;;;;;2.47;1.52;;;17.40;75.40;;;15.35;90.01;96053.28;4904985;28;20351;-63
2022/05/25 07:42:22;;;;;;;4.80;3.60;;;17.60;74.50;;;15.48;89.60;96061.09;4902320;28;20364;-63
2022/05/25 07:44:59;;;;;;;12.13;9.57;;;17.60;72.80;;;15.62;88.00;96056.50;4887106;28;20491;-63
2022/05/25 07:47:27;;;;;;;2.78;2.10;;;17.80;71.40;;;15.67;88.44;96056.66;4920000;28;20433;-63
2022/05/25 07:49:53;;;;;;;3.72;1.67;;;17.70;71.80;;;15.73;87.09;96055.75;4884292;28;20564;-62
2022/05/25 07:52:20;;;;;;;2.20;1.13;;;17.90;70.90;;;15.83;86.37;96060.53;4870738;28;20300;-63
2022/05/25 07:54:47;;;;;;;1.83;1.10;;;18.00;70.70;;;15.92;85.59;96057.38;4891587;28;20420;-64
2022/05/25 07:57:13;;;;;;;2.83;1.35;;;18.10;70.00;;;16.04;85.51;96051.28;4881979;28;20359;-64
2022/05/25 07:59:39;;;;;;;1.95;1.30;;;18.20;70.70;;;16.12;84.98;96058.97;4861976;28;20185;-63
2022/05/25 08:07:43;;;;;;;1.58;0.90;;;18.10;70.20;;;16.18;84.10;96076.63;4897012;28;20401;-61
2022/05/25 08:10:14;;;;;;;1.42;1.00;;;18.20;70.20;;;16.19;82.37;96080.91;4880682;28;20446;-61
2022/05/25 08:12:40;;;;;;;1.17;0.80;;;18.20;69.50;;;16.17;82.02;96082.97;4868309;28;20463;-64
2022/05/25 08:15:08;;;;;;;1.15;0.98;;;18.10;68.10;;;16.19;82.36;96081.72;4885012;28;20299;-62
2022/05/25 08:17:34;;;;;;;1.45;0.85;;;18.20;69.70;;;16.20;81.18;96079.88;4899228;28;20037;-63
2022/05/25 08:20:00;;;;;;;3.25;1.00;;;18.10;67.90;;;16.21;81.38;96082.28;4911733;28;20522;-63
2022/05/25 08:22:26;;;;;;;1.75;1.17;;;18.10;69.10;;;16.26;81.91;96081.63;4895464;28;20046;-64
2022/05/25 08:24:53;;;;;;;1.48;0.95;;;18.30;69.10;;;16.33;81.23;96092.97;4898123;28;20270;-61
2022/05/25 08:27:19;;;;;;;1.30;1.00;;;18.50;68.10;;;16.44;80.81;96094.84;4918653;28;20343;-62
2022/05/25 08:29:45;;;;;;;1.55;1.00;;;18.70;67.30;;;16.60;80.24;96092.59;4903462;28;20364;-61
2022/05/25 08:32:11;;;;;;;1.42;1.08;;;19.00;66.30;;;16.74;80.73;96104.66;4897530;28;20566;-62
2022/05/25 08:34:37;;;;;;;1.92;1.05;;;19.20;67.00;;;16.86;80.62;96118.78;4917048;28;20218;-64
2022/05/25 08:39:39;;;;;;;2.10;1.23;;;19.10;66.00;;;16.95;79.97;96105.97;5265988;23;20517;-66
2022/05/25 08:42:08;;;;;;;3.22;1.30;;;19.00;67.90;;;16.98;79.33;96095.72;4960270;28;20066;-65
2022/05/25 08:44:34;;;;;;;3.60;2.40;;;19.20;66.40;;;17.10;78.44;96099.19;4965965;28;20092;-63
2022/05/25 08:47:01;;;;;;;5.10;3.83;;;19.70;63.80;;;17.29;78.22;96096.44;4987522;28;20034;-64
2022/05/25 08:49:30;;;;;;;3.10;1.73;;;20.00;62.90;;;17.51;77.29;96100.13;4966812;28;20489;-64
2022/05/25 08:51:57;;;;;;;1.27;0.98;;;20.30;62.20;;;17.72;77.10;96102.22;4966673;28;20035;-67
2022/05/25 08:54:26;;;;;;;1.08;0.93;;;20.50;61.90;;;17.84;75.88;96104.06;4947146;28;20467;-62
2022/05/25 08:57:05;;;;;;;1.45;1.00;;;20.30;60.40;;;17.92;73.10;96098.38;4973385;23;20514;-68
2022/05/25 08:59:39;;;;;;;2.38;1.25;;;20.30;60.70;;;17.89;73.24;96107.66;4942687;28;20493;-69
2022/05/25 09:02:38;;;;;;;2.10;1.10;;;20.10;62.40;;;17.87;73.77;96114.22;4952206;28;20038;-69
2022/05/25 09:05:10;;;;;;;2.38;0.88;;;19.80;63.60;;;17.78;73.35;96110.31;4953482;28;20031;-69
2022/05/25 09:08:09;;;;;;;3.05;0.90;;;19.60;62.50;;;17.72;73.10;96109.41;4967103;28;20446;-67
2022/05/25 09:10:41;;;;;;;4.97;1.13;;;19.50;63.60;;;17.61;73.81;96115.50;4962211;28;20066;-68
2022/05/25 09:13:16;;;;;;;2.38;1.20;;;19.50;64.40;;;17.57;75.00;96115.16;4946155;28;20039;-70
2022/05/25 09:18:34;;;;;;;2.65;1.20;;;19.40;64.10;;;17.55;73.79;96109.25;4955375;28;20045;-71
2022/05/25 09:21:03;;;;;;;3.25;1.20;;;19.50;63.90;;;17.58;72.63;96116.78;4934807;28;20044;-71
2022/05/25 09:23:29;;;;;;;3.13;1.60;;;19.60;62.20;;;17.63;72.75;96113.41;4962637;28;20035;-69
2022/05/25 09:25:55;;;;;;;1.83;1.20;;;19.70;61.80;;;17.68;72.27;96111.72;4965583;28;20138;-72
2022/05/25 09:28:22;;;;;;;3.03;1.60;;;19.80;59.00;;;17.64;70.37;96110.50;4960910;28;20097;-70
2022/05/25 09:30:51;;;;;;;2.78;1.50;;;19.60;59.20;;;17.67;69.91;96118.09;4943626;28;20043;-69
2022/05/25 09:33:32;;;;;;;2.70;1.50;;;19.80;59.80;;;17.69;67.89;96113.34;4948959;28;20089;-70
2022/05/25 09:36:11;;;;;;;;;;;19.60;59.00;;;17.74;70.21;96110.78;4934914;28;20093;-69
2022/05/25 09:38:59;;;;;;;3.95;2.13;;;20.00;61.30;;;17.92;70.09;96117.81;4964931;28;20389;-69
2022/05/25 09:41:25;;;;;;;4.35;2.40;;;20.30;60.60;;;18.06;71.84;96118.34;4963546;28;20038;-68
2022/05/25 09:43:53;;;;;;;2.15;1.55;;;20.40;60.10;;;18.18;71.23;96116.47;4958529;28;20035;-69
2022/05/25 09:46:36;;;;;;;1.88;1.10;;;20.60;60.40;;;18.31;67.97;96116.19;4964583;28;20115;-69
2022/05/25 09:49:05;;;;;;;2.38;1.30;;;20.70;57.80;;;18.44;69.76;96114.31;4936539;28;20130;-69
2022/05/25 09:51:44;;;;;;;1.52;1.00;;;20.80;57.70;;;18.55;69.51;96116.09;4924444;28;20588;-69
2022/05/25 09:54:26;;;;;;;2.70;1.33;;;20.90;58.60;;;18.60;66.15;96108.22;4971524;28;20059;-69
2022/05/25 09:57:25;;;;;;;2.58;1.08;;;20.90;56.20;;;18.66;66.37;96116.09;4968559;28;20063;-69
2022/05/25 10:00:03;;;;;;;1.45;0.90;;;21.00;56.90;;;18.79;66.92;96107.00;4953432;28;20098;-69
2022/05/25 10:02:49;;;;;;;2.72;1.10;;;21.30;56.40;;;19.22;64.90;96113.53;4957131;28;20035;-68
2022/05/25 10:05:27;;;;;;;1.23;0.95;;;22.60;51.80;;;19.87;66.18;96115.59;4967003;28;20094;-66
2022/05/25 10:08:08;;;;;;;1.75;1.00;;;23.60;51.70;;;20.29;63.93;96115.06;4954822;28;20124;-65
2022/05/25 10:10:35;;;;;;;;;;;23.80;48.90;;;20.63;59.30;96110.38;4955244;28;20046;-65
2022/05/25 10:13:16;;;;;;;2.22;0.95;;;24.20;46.40;;;20.88;59.29;96117.84;4955908;28;19917;-64
2022/05/25 10:15:42;;;;;;;1.65;0.85;;;24.00;45.70;;;21.02;61.82;96116.34;4967448;28;20062;-67
2022/05/25 10:18:13;;;;;;;2.60;0.90;;;24.10;44.50;;;21.23;58.91;96110.13;4955266;28;20031;-67
2022/05/25 10:20:46;;;;;;;1.52;0.90;;;24.40;45.90;;;21.53;55.34;96114.94;4986397;28;20116;-68
2022/05/25 10:23:13;;;;;;;1.83;0.85;;;25.10;43.00;;;21.90;58.94;96116.75;4940020;28;20461;-66
2022/05/25 10:25:53;;;;;;;2.45;0.93;;;25.60;43.00;;;22.27;52.18;96114.00;4962947;28;20047;-68
2022/05/25 10:28:28;;;;;;;2.58;0.80;;;26.00;39.90;;;22.78;54.68;96106.09;4943398;28;20039;-68
2022/05/25 10:36:45;;;;;;;1.55;0.70;;;27.30;38.90;;;23.90;54.25;96103.41;4972675;28;20081;-67
2022/05/25 10:37:06;;;;;;;3.08;0.80;;;28.50;37.70;;;24.72;50.72;96115.47;4958927;28;20138;-69
2022/05/25 10:39:40;;;;;;;2.08;0.90;;;29.60;35.50;;;25.38;50.19;96104.25;4973101;28;20039;-69
2022/05/25 10:42:24;;;;;;;4.10;2.00;;;30.50;34.90;;;26.12;45.29;96092.19;4972751;28;20042;-68
2022/05/25 10:44:59;;;;;;;1.50;0.63;;;31.10;32.20;;;26.39;45.45;96093.53;4971311;28;20093;-68
2022/05/25 10:47:40;;;;;;;2.63;0.90;;;30.00;33.30;;;26.12;43.57;96104.88;4969368;28;20035;-69
2022/05/25 10:50:15;;;;;;;1.08;0.50;;;28.80;34.30;;;26.33;46.24;96095.44;4978056;28;20039;-69
2022/05/25 10:52:50;;;;;;;0.93;0.65;;;29.70;34.80;;;26.27;43.59;96101.22;4940189;28;20035;-69
2022/05/25 10:55:18;;;;;;;2.85;0.90;;;28.90;34.70;;;25.93;46.70;96112.91;4955190;28;20058;-69
2022/05/25 10:58:02;;;;;;;1.48;0.57;;;28.10;35.50;;;25.79;42.12;96111.97;4955271;28;20042;-69
2022/05/25 11:00:45;;;;;;;1.42;0.63;;;28.60;34.20;;;25.89;41.06;96095.69;4968206;28;20039;-69
2022/05/25 11:03:21;;;;;;;1.38;0.73;;;28.50;33.50;;;25.83;40.75;96102.25;4967169;28;20135;-70